Relevés horaires Les Diablerets (Suisse)


Relevés horaires à Les Diablerets - Jeudi 26 Avr. 2018
Heure UTC1 Température [°C] Vent [km/h] Hum. [%] Pres.4 [hPa] Visi. [Km] Nébu. [octa] Préc.5 [mm] Cond.
2m. Res. Ros. Dir.2 Vit. Moy. Raf.3
22:00 -0.4 -6.1 -14.0 OSO 22.2 -- 31.5 35 700(-0.4/3h) -- -- -- --
21:00 -0.6 -5.8 -23.8 SO 18.5 -- 29.6 15 700(-0.1/3h) -- -- -- --
20:00 -0.5 -5.9 -29.2 OSO 20.4 -- 27.8 9 700(0.2/3h) -- -- -- --
19:00 -1.3 -6.9 -22.2 OSO 20.4 -- 29.6 19 700(0.1/3h) -- -- -- --
18:00 -1.4 -7.3 -13.6 OSO 22.2 -- 35.2 39 700(0.0/3h) -- -- -- --
17:00 -1.4 -7.6 -11.7 OSO 24.1 -- 29.6 45 700(-0.3/3h) -- -- -- --
16:00 -1.4 -7.1 -7.3 SO 20.4 -- 29.6 64 700(-0.1/3h) -- -- -- --
15:00 -0.3 -5.1 -4.7 SO 16.7 -- 35.2 72 700(-0.2/3h) -- -- -- --
14:00 -0.4 -5.5 -10.8 SO 18.5 -- 33.3 45 700(-0.2/3h) -- -- -- --
13:00 -1.2 -7.3 -12.5 OSO 24.1 -- 35.2 42 700(-0.2/3h) -- -- -- --
12:00 -1.3 -6.9 -11.4 SO 20.4 -- 40.7 46 700(0.1/3h) -- -- -- --
11:00 -1.6 -7.6 -15.1 SO 22.2 -- 37.0 35 700(0.4/3h) -- -- -- --
10:00 -1.2 -7.6 -19.8 OSO 25.9 -- 37.0 23 700(0.2/3h) -- -- -- --
09:00 -2.7 -9.9 -18.9 OSO 29.6 -- 40.7 27 700(0.0/3h) -- -- -- --
08:00 -4.3 -11.6 -7.5 OSO 25.9 -- 40.7 78 700(0.1/3h) -- -- -- --
07:00 -4.8 -11.7 -5.2 OSO 22.2 -- 29.6 97 700(0.0/3h) -- -- -- --
06:00 -4.4 -11.4 -4.5 OSO 24.1 -- 66.7 99 700(-0.3/3h) -- -- -- --
05:00 -4.1 -10.8 -4.1 OSO 22.2 -- 46.3 100 700(-0.6/3h) -- -- -- --
04:00 -3.2 -9 -3.2 O 18.5 -- 55.6 100 700(-0.8/3h) -- -- -- --
03:00 -2.9 -8.3 -2.9 OSO 16.7 -- 66.7 100 700(-1.1/3h) -- -- -- --
02:00 -2.1 -8.7 -2.1 OSO 25.9 -- 53.7 100 700(-1.3/3h) -- -- -- --
01:00 -1.5 -8 -1.7 SO 25.9 -- 66.7 99 700(-1.1/3h) -- -- -- --
00:00 -0.5 -7.1 -0.5 OSO 29.6 -- 68.5 100 700(-0.8/3h) -- -- -- --

1 Coordinated Universal Time. Actuellement il est 00:00 locale et 22:00 UTC.

2 Le vent souffle depuis la direction indiquée vers la direction oposée.

3 Les rafales max. sont disponible 40 min après l'heure du relevé.

4 Pour les stations d'altitude (plus de 600m) le géopotentiel du niveau le plus proche de la pression obligatoire est indiqué.

5 Les stations disposant d'un diffuseur peuvent indiquer "trace". Cela signifie que des précipitations ont touchés le sol mais que la quantité est inférieure à 0.1 mm.

Récapitulatif de la journée
Température [°C] Vent [km/h] Ensoleillement4 [h] Precipitations totale5 [mm] Pression [Hpa]
Min1 Max.2 Moy.3 Max. Min Max.
-4.2 -0.3 0 68.5 0 h 0 min 0 700.0 700.0

1 Température minimale relevée entre 18:00 UTC la veille et 18:00 UTC le jour donné.

2 Température maximale relevée entre 06:00 UTC le jour donné et 06:00 UTC le lendemain.

3 Vent moyen de la journée basé sur les relevés horaires.

4 Ensoleillement en heures relevé entre 06:00 UTC la veille et 06:00 UTC le jour donné.

5 Précipitations totales tombées entre 06:00 UTC la jour donné et 06:00 UTC le lendemain.

Graphiques horaires